createdAt,value
2023-05-15T00:00:13.750Z,68.30
2023-05-15T00:02:46.004Z,68.50
2023-05-15T00:05:15.140Z,68.70
2023-05-15T00:07:45.646Z,68.90
2023-05-15T00:10:14.676Z,69.00
2023-05-15T00:12:43.710Z,69.30
2023-05-15T00:15:13.023Z,69.30
2023-05-15T00:17:42.150Z,69.60
2023-05-15T00:20:12.509Z,69.70
2023-05-15T00:22:41.502Z,69.60
2023-05-15T00:25:12.210Z,69.80
2023-05-15T00:27:41.236Z,70.00
2023-05-15T00:30:11.320Z,70.30
2023-05-15T00:32:41.433Z,70.40
2023-05-15T00:35:10.739Z,70.50
2023-05-15T00:37:39.826Z,70.70
2023-05-15T00:40:13.978Z,71.00
2023-05-15T00:42:43.710Z,71.10
2023-05-15T00:45:14.124Z,71.10
2023-05-15T00:47:44.419Z,71.30
2023-05-15T00:50:13.623Z,71.60
2023-05-15T00:52:43.635Z,71.60
2023-05-15T00:55:14.070Z,71.70
2023-05-15T00:57:44.703Z,71.90
2023-05-15T01:00:16.949Z,72.00
2023-05-15T01:02:47.142Z,72.10
2023-05-15T01:05:16.550Z,72.20
2023-05-15T01:07:53.261Z,72.40
2023-05-15T01:10:24.669Z,72.50
2023-05-15T01:12:56.798Z,72.60
2023-05-15T01:15:26.092Z,72.90
2023-05-15T01:17:55.456Z,72.90
2023-05-15T01:20:24.668Z,73.00
2023-05-15T01:23:01.202Z,73.00
2023-05-15T01:26:09.518Z,73.20
2023-05-15T01:28:44.513Z,73.30
2023-05-15T01:31:20.281Z,73.30
2023-05-15T01:33:56.003Z,73.50
2023-05-15T01:36:33.683Z,73.50
2023-05-15T01:39:04.117Z,73.70
2023-05-15T01:41:38.011Z,73.90
2023-05-15T01:44:12.694Z,73.90
2023-05-15T01:46:46.497Z,73.90
2023-05-15T01:49:19.864Z,74.10
2023-05-15T01:51:52.086Z,74.10
2023-05-15T01:54:23.862Z,74.10
2023-05-15T01:56:53.996Z,74.30
2023-05-15T01:59:26.275Z,74.50
2023-05-15T02:01:56.496Z,74.60
2023-05-15T02:04:27.430Z,74.60
2023-05-15T02:06:57.008Z,74.80
2023-05-15T02:09:27.235Z,74.90
2023-05-15T02:11:56.906Z,74.90
2023-05-15T02:14:29.500Z,74.90
2023-05-15T02:16:58.543Z,75.00
2023-05-15T02:19:29.512Z,75.00
2023-05-15T02:21:58.903Z,75.10
2023-05-15T02:24:28.011Z,75.20
2023-05-15T02:27:03.700Z,75.30
2023-05-15T02:29:42.294Z,75.40
2023-05-15T02:32:21.514Z,75.60
2023-05-15T02:35:01.295Z,75.60
2023-05-15T02:37:34.174Z,75.70
2023-05-15T02:40:07.148Z,75.60
2023-05-15T02:42:37.337Z,75.60
2023-05-15T02:45:10.748Z,75.60
2023-05-15T02:47:41.037Z,75.70
2023-05-15T02:50:11.016Z,75.70
2023-05-15T02:52:40.575Z,75.80
2023-05-15T02:55:10.835Z,75.80
2023-05-15T02:57:39.882Z,75.80
2023-05-15T03:00:13.545Z,76.10
2023-05-15T03:02:42.605Z,76.20
2023-05-15T03:05:11.768Z,76.20
2023-05-15T03:07:41.397Z,76.20
2023-05-15T03:10:10.686Z,76.20
2023-05-15T03:12:40.452Z,76.40
2023-05-15T03:15:11.303Z,76.50
2023-05-15T03:17:46.515Z,76.60
2023-05-15T03:20:15.637Z,76.60
2023-05-15T03:22:44.713Z,76.60
2023-05-15T03:25:13.748Z,76.70
2023-05-15T03:27:42.748Z,76.80
2023-05-15T03:30:13.592Z,76.80
2023-05-15T03:32:42.859Z,76.80
2023-05-15T03:35:12.186Z,76.70
2023-05-15T03:37:41.193Z,76.80
2023-05-15T03:40:10.862Z,76.70
2023-05-15T03:42:40.399Z,76.70
2023-05-15T03:45:10.666Z,76.80
2023-05-15T03:47:42.935Z,76.80
2023-05-15T03:50:12.614Z,76.80
2023-05-15T03:52:42.352Z,76.80
2023-05-15T03:55:11.784Z,77.70
2023-05-15T03:57:42.653Z,77.00
2023-05-15T04:00:12.776Z,77.10
2023-05-15T04:02:43.575Z,77.10
2023-05-15T04:05:12.694Z,77.00
2023-05-15T04:07:41.725Z,77.10
2023-05-15T04:10:11.074Z,77.10
2023-05-15T04:12:40.154Z,77.10
2023-05-15T04:15:17.107Z,77.30
2023-05-15T04:17:49.592Z,77.30
2023-05-15T04:20:20.813Z,77.50
2023-05-15T04:22:50.311Z,77.60
2023-05-15T04:25:20.282Z,77.80
2023-05-15T04:27:49.464Z,77.80
2023-05-15T04:30:18.846Z,77.90
2023-05-15T04:32:49.377Z,77.90
2023-05-15T04:35:19.141Z,77.90
2023-05-15T04:37:48.202Z,78.00
2023-05-15T04:40:17.320Z,78.10
2023-05-15T04:42:46.457Z,78.20
2023-05-15T04:45:15.801Z,78.20
2023-05-15T04:47:44.896Z,78.20
2023-05-15T04:50:15.351Z,78.20
2023-05-15T04:52:45.741Z,78.10
2023-05-15T04:55:14.771Z,78.10
2023-05-15T04:57:43.818Z,78.20
2023-05-15T05:00:14.513Z,78.10
2023-05-15T05:02:44.233Z,78.10
2023-05-15T05:05:15.083Z,78.20
2023-05-15T05:07:45.836Z,78.30
2023-05-15T05:10:14.917Z,78.40
2023-05-15T05:12:43.917Z,78.30
2023-05-15T05:15:13.287Z,78.20
2023-05-15T05:17:42.434Z,78.00
2023-05-15T05:20:13.541Z,77.70
2023-05-15T05:22:44.119Z,77.50
2023-05-15T05:25:13.127Z,77.20
2023-05-15T05:27:42.160Z,77.10
2023-05-15T05:30:12.049Z,76.90
2023-05-15T05:32:41.215Z,76.60
2023-05-15T05:35:10.754Z,76.40
2023-05-15T05:37:41.152Z,76.10
2023-05-15T05:40:13.197Z,75.80
2023-05-15T05:42:42.732Z,75.50
2023-05-15T05:45:12.759Z,75.20
2023-05-15T05:47:41.908Z,75.00
2023-05-15T05:50:11.277Z,74.70
2023-05-15T05:52:40.340Z,74.50
2023-05-15T05:55:11.704Z,74.20
2023-05-15T05:57:40.947Z,75.00
2023-05-15T06:00:11.271Z,74.10
2023-05-15T06:02:41.332Z,73.90
2023-05-15T06:05:11.107Z,73.80
2023-05-15T06:07:40.359Z,73.40
2023-05-15T06:10:12.984Z,73.20
2023-05-15T06:12:41.972Z,73.00
2023-05-15T06:15:11.752Z,72.70
2023-05-15T06:17:41.003Z,72.50
2023-05-15T06:20:10.948Z,72.40
2023-05-15T06:22:40.757Z,72.20
2023-05-15T06:25:13.868Z,72.00
2023-05-15T06:27:43.099Z,71.60
2023-05-15T06:30:13.442Z,71.40
2023-05-15T06:32:43.077Z,71.20
2023-05-15T06:35:12.473Z,70.70
2023-05-15T06:37:41.596Z,70.70
2023-05-15T06:40:12.821Z,70.60
2023-05-15T06:42:41.849Z,70.40
2023-05-15T06:45:11.816Z,70.20
2023-05-15T06:47:40.933Z,70.00
2023-05-15T06:50:11.064Z,69.90
2023-05-15T06:52:40.194Z,69.60
2023-05-15T06:55:11.334Z,69.40
2023-05-15T06:57:40.488Z,69.30
2023-05-15T07:00:10.676Z,70.00
2023-05-15T07:02:39.729Z,69.20
2023-05-15T07:05:10.525Z,69.00
2023-05-15T07:07:39.774Z,69.10
2023-05-15T07:10:11.558Z,68.90
2023-05-15T07:12:40.640Z,68.80
2023-05-15T07:15:10.450Z,68.60
2023-05-15T07:17:39.644Z,68.40
2023-05-15T07:20:09.627Z,68.60
2023-05-15T07:22:44.563Z,68.80
2023-05-15T07:25:22.919Z,69.10
2023-05-15T07:27:52.580Z,69.10
2023-05-15T07:30:21.701Z,68.90
2023-05-15T07:32:50.975Z,68.60
2023-05-15T07:35:20.160Z,68.20
2023-05-15T07:37:49.252Z,67.90
2023-05-15T07:40:18.373Z,67.60
2023-05-15T07:42:48.763Z,67.30
2023-05-15T07:45:17.986Z,67.20
2023-05-15T07:47:47.878Z,67.20
2023-05-15T07:50:17.708Z,67.10
2023-05-15T07:52:46.872Z,66.90
2023-05-15T07:55:15.954Z,66.90
2023-05-15T07:57:45.696Z,66.90
2023-05-15T08:00:17.410Z,66.60
2023-05-15T08:02:47.448Z,66.60
2023-05-15T08:05:16.765Z,66.30
2023-05-15T08:07:45.823Z,66.00
2023-05-15T08:10:14.879Z,65.70
2023-05-15T08:12:46.663Z,65.30
2023-05-15T08:15:17.529Z,65.40
2023-05-15T08:17:46.612Z,65.30
2023-05-15T08:20:15.743Z,65.40
2023-05-15T08:22:44.728Z,64.70
2023-05-15T08:25:13.847Z,64.50
2023-05-15T08:27:42.892Z,64.20
2023-05-15T08:30:12.954Z,64.10
2023-05-15T08:32:44.148Z,63.70
2023-05-15T08:35:13.210Z,63.90
2023-05-15T08:37:42.741Z,64.50
2023-05-15T08:40:12.696Z,65.10
2023-05-15T08:42:46.083Z,64.90
2023-05-15T08:45:15.804Z,64.70
2023-05-15T08:47:46.469Z,65.10
2023-05-15T08:50:17.306Z,63.50
2023-05-15T08:52:47.788Z,63.20
2023-05-15T08:55:17.752Z,63.30
2023-05-15T08:57:47.137Z,63.10
2023-05-15T09:00:17.121Z,62.90
2023-05-15T09:02:47.633Z,62.90
2023-05-15T09:05:16.672Z,62.80
2023-05-15T09:07:47.104Z,62.60
2023-05-15T09:10:16.913Z,62.20
2023-05-15T09:12:46.413Z,61.20
2023-05-15T09:15:18.027Z,60.90
2023-05-15T09:17:49.065Z,60.80
2023-05-15T09:20:29.308Z,60.00
2023-05-15T09:22:59.167Z,59.70
2023-05-15T09:25:35.800Z,59.80
2023-05-15T09:28:04.885Z,60.10
2023-05-15T09:30:34.832Z,60.10
2023-05-15T09:33:05.422Z,59.90
2023-05-15T09:35:36.328Z,59.80
2023-05-15T09:38:10.318Z,59.80
2023-05-15T09:40:40.881Z,59.90
2023-05-15T09:43:12.210Z,60.20
2023-05-15T09:45:41.207Z,60.50
2023-05-15T09:48:12.372Z,60.80
2023-05-15T09:50:42.571Z,61.20
2023-05-15T09:53:14.230Z,61.40
2023-05-15T09:55:44.160Z,61.70
2023-05-15T09:58:15.553Z,62.00
2023-05-15T10:00:47.579Z,62.60
2023-05-15T10:03:21.215Z,62.40
2023-05-15T10:05:51.593Z,62.20
2023-05-15T10:08:29.289Z,61.90
2023-05-15T10:11:01.784Z,62.20
2023-05-15T10:13:34.980Z,61.80
2023-05-15T10:16:04.958Z,60.40
2023-05-15T10:18:37.750Z,59.60
2023-05-15T10:21:09.057Z,59.80
2023-05-15T10:23:38.844Z,59.80
2023-05-15T10:26:14.024Z,60.00
2023-05-15T10:28:45.321Z,60.10
2023-05-15T10:31:15.038Z,59.90
2023-05-15T10:33:45.731Z,59.90
2023-05-15T10:36:16.573Z,60.00
2023-05-15T10:38:47.204Z,60.10
2023-05-15T10:41:19.206Z,60.40
2023-05-15T10:43:50.046Z,60.50
2023-05-15T10:46:21.625Z,60.50
2023-05-15T10:48:52.784Z,60.50
2023-05-15T10:51:27.523Z,60.10
2023-05-15T10:53:58.097Z,59.80
2023-05-15T10:56:32.185Z,59.40
2023-05-15T10:59:07.331Z,59.10
2023-05-15T11:01:38.310Z,59.30
2023-05-15T11:04:13.064Z,59.40
2023-05-15T11:06:43.950Z,58.20
2023-05-15T11:09:38.508Z,57.50
2023-05-15T11:12:09.769Z,57.50
2023-05-15T11:14:44.468Z,57.50
2023-05-15T11:17:15.342Z,57.10
2023-05-15T11:20:01.314Z,57.10
2023-05-15T11:22:32.537Z,57.10
2023-05-15T11:25:03.765Z,57.30
2023-05-15T11:27:32.989Z,57.10
2023-05-15T11:30:09.720Z,57.10
2023-05-15T11:32:46.751Z,57.00
2023-05-15T11:35:22.640Z,57.40
2023-05-15T11:37:54.159Z,57.00
2023-05-15T11:40:27.968Z,57.20
2023-05-15T11:43:18.925Z,57.10
2023-05-15T11:45:49.698Z,57.00
2023-05-15T11:48:19.391Z,57.00
2023-05-15T11:50:50.090Z,57.00
2023-05-15T11:53:20.617Z,57.10
2023-05-15T11:55:49.941Z,57.10
2023-05-15T11:58:20.020Z,57.50
2023-05-15T12:00:50.672Z,58.20
2023-05-15T12:03:24.573Z,59.00
2023-05-15T12:05:59.781Z,60.10
2023-05-15T12:08:34.026Z,60.70
2023-05-15T12:11:04.019Z,61.40
2023-05-15T12:13:33.989Z,62.00
2023-05-15T12:16:04.641Z,62.50
2023-05-15T12:18:34.866Z,63.00
2023-05-15T12:21:06.315Z,63.20
2023-05-15T12:23:35.199Z,63.20
2023-05-15T12:26:04.743Z,63.30
2023-05-15T12:28:36.749Z,63.20
2023-05-15T12:31:06.349Z,63.00
2023-05-15T12:33:35.667Z,63.00
2023-05-15T12:36:07.249Z,63.00
2023-05-15T12:38:37.746Z,63.00
2023-05-15T12:41:07.383Z,63.00
2023-05-15T12:43:36.352Z,62.90
2023-05-15T12:46:05.650Z,62.80
2023-05-15T12:48:34.754Z,62.70
2023-05-15T12:51:09.348Z,62.20
2023-05-15T12:53:40.040Z,61.80
2023-05-15T12:56:10.242Z,61.30
2023-05-15T12:58:40.202Z,60.90
2023-05-15T13:01:09.633Z,60.70
2023-05-15T13:03:39.309Z,60.30
2023-05-15T13:06:11.607Z,59.80
2023-05-15T13:08:42.180Z,59.40
2023-05-15T13:11:14.624Z,59.30
2023-05-15T13:13:45.490Z,58.60
2023-05-15T13:16:22.366Z,58.00
2023-05-15T13:18:51.621Z,57.60
2023-05-15T13:21:22.255Z,57.80
2023-05-15T13:23:51.942Z,57.60
2023-05-15T13:26:21.158Z,57.80
2023-05-15T13:28:50.208Z,57.90
2023-05-15T13:31:19.509Z,58.00
2023-05-15T13:33:49.080Z,58.30
2023-05-15T13:36:18.062Z,58.60
2023-05-15T13:38:48.663Z,58.90
2023-05-15T13:41:17.701Z,59.10
2023-05-15T13:43:50.272Z,59.10
2023-05-15T13:46:20.425Z,59.00
2023-05-15T13:48:52.965Z,59.10
2023-05-15T13:51:22.046Z,59.30
2023-05-15T13:53:52.497Z,58.90
2023-05-15T13:56:22.440Z,58.60
2023-05-15T13:58:51.699Z,58.10
2023-05-15T14:01:20.764Z,57.70
2023-05-15T14:03:52.161Z,57.40
2023-05-15T14:06:21.029Z,57.70
2023-05-15T14:08:49.985Z,57.90
2023-05-15T14:11:22.813Z,57.90
2023-05-15T14:13:51.884Z,58.00
2023-05-15T14:16:20.968Z,58.10
2023-05-15T14:18:50.118Z,58.20
2023-05-15T14:21:19.187Z,58.50
2023-05-15T14:23:48.585Z,58.50
2023-05-15T14:26:19.034Z,58.60
2023-05-15T14:28:48.066Z,58.70
2023-05-15T14:31:17.228Z,58.60
2023-05-15T14:33:46.249Z,58.40
2023-05-15T14:36:15.303Z,58.60
2023-05-15T14:38:45.617Z,58.70
2023-05-15T14:41:14.748Z,58.80
2023-05-15T14:43:45.166Z,58.70
2023-05-15T14:46:14.265Z,58.80
2023-05-15T14:48:43.401Z,58.90
2023-05-15T14:51:12.577Z,59.10
2023-05-15T14:53:41.655Z,59.10
2023-05-15T14:56:10.681Z,59.10
2023-05-15T14:58:39.871Z,59.50
2023-05-15T15:01:10.521Z,60.10
2023-05-15T15:03:39.650Z,60.30
2023-05-15T15:06:08.784Z,60.00
2023-05-15T15:08:38.877Z,59.90
2023-05-15T15:11:23.610Z,60.00
2023-05-15T15:14:01.009Z,60.10
2023-05-15T15:16:34.798Z,60.50
2023-05-15T15:19:03.941Z,60.80
2023-05-15T15:21:42.094Z,60.90
2023-05-15T15:24:11.169Z,61.20
2023-05-15T15:26:40.212Z,60.90
2023-05-15T15:29:11.726Z,60.60
2023-05-15T15:31:42.241Z,60.60
2023-05-15T15:34:11.486Z,60.70
2023-05-15T15:36:41.574Z,60.80
2023-05-15T15:39:13.143Z,60.90
2023-05-15T15:41:44.286Z,60.90
2023-05-15T15:44:13.308Z,60.80
2023-05-15T15:46:43.823Z,60.90
2023-05-15T15:49:12.920Z,61.20
2023-05-15T15:51:42.185Z,62.10
2023-05-15T15:54:11.425Z,60.90
2023-05-15T15:56:41.440Z,60.60
2023-05-15T15:59:10.485Z,60.00
2023-05-15T16:01:39.545Z,60.00
2023-05-15T16:04:10.066Z,59.90
2023-05-15T16:06:39.186Z,59.70
2023-05-15T16:09:08.208Z,59.30
2023-05-15T16:11:37.287Z,59.00
2023-05-15T16:14:06.384Z,58.90
2023-05-15T16:16:35.514Z,58.50
2023-05-15T16:19:04.751Z,58.20
2023-05-15T16:21:36.395Z,58.20
2023-05-15T16:24:05.994Z,57.70
2023-05-15T16:26:35.065Z,57.60
2023-05-15T16:29:06.466Z,57.70
2023-05-15T16:31:35.327Z,57.80
2023-05-15T16:34:04.430Z,57.70
2023-05-15T16:36:34.835Z,58.00
2023-05-15T16:39:04.616Z,58.30
2023-05-15T16:41:45.342Z,58.40
2023-05-15T16:44:14.393Z,58.60
2023-05-15T16:46:43.467Z,58.90
2023-05-15T16:49:12.614Z,58.80
2023-05-15T16:51:43.085Z,59.00
2023-05-15T16:54:17.652Z,59.20
2023-05-15T16:56:46.763Z,59.40
2023-05-15T16:59:15.874Z,59.70
2023-05-15T17:01:46.839Z,60.80
2023-05-15T17:04:15.925Z,60.10
2023-05-15T17:06:46.332Z,60.60
2023-05-15T17:09:16.012Z,60.40
2023-05-15T17:11:45.079Z,60.20
2023-05-15T17:14:17.384Z,60.20
2023-05-15T17:19:30.810Z,60.40
2023-05-15T17:22:01.413Z,60.70
2023-05-15T17:24:50.754Z,60.80
2023-05-15T17:27:22.250Z,61.30
2023-05-15T17:29:51.305Z,61.80
2023-05-15T17:32:20.731Z,62.40
2023-05-15T17:34:50.231Z,62.90
2023-05-15T17:37:20.718Z,63.30
2023-05-15T17:39:50.509Z,63.50
2023-05-15T17:42:19.606Z,63.50
2023-05-15T17:44:48.699Z,63.40
2023-05-15T17:47:17.755Z,63.20
2023-05-15T17:49:46.945Z,62.90
2023-05-15T17:52:16.314Z,62.70
2023-05-15T17:54:46.794Z,62.90
2023-05-15T17:57:15.869Z,63.30
2023-05-15T17:59:45.004Z,63.60
2023-05-15T18:02:14.235Z,63.30
2023-05-15T18:04:43.326Z,63.40
2023-05-15T18:07:12.718Z,63.60
2023-05-15T18:09:42.682Z,63.70
2023-05-15T18:12:13.094Z,63.70
2023-05-15T18:14:42.183Z,63.90
2023-05-15T18:17:12.416Z,63.90
2023-05-15T18:19:44.778Z,64.10
2023-05-15T18:22:13.925Z,64.40
2023-05-15T18:24:42.992Z,64.60
2023-05-15T18:27:13.595Z,64.80
2023-05-15T18:29:43.856Z,65.00
2023-05-15T18:32:13.705Z,65.30
2023-05-15T18:34:42.834Z,65.30
2023-05-15T18:37:11.870Z,65.00
2023-05-15T18:39:42.990Z,65.20
2023-05-15T18:42:13.388Z,65.50
2023-05-15T18:44:42.555Z,65.50
2023-05-15T18:47:11.978Z,65.80
2023-05-15T18:49:41.017Z,65.80
2023-05-15T18:52:10.320Z,65.90
2023-05-15T18:54:40.029Z,65.80
2023-05-15T18:57:09.315Z,66.20
2023-05-15T18:59:39.864Z,66.30
2023-05-15T19:02:09.528Z,66.30
2023-05-15T19:04:38.735Z,66.50
2023-05-15T19:07:08.224Z,66.60
2023-05-15T19:09:37.323Z,67.00
2023-05-15T19:12:06.933Z,66.90
2023-05-15T19:14:36.163Z,66.90
2023-05-15T19:17:07.415Z,67.00
2023-05-15T19:19:36.642Z,67.30
2023-05-15T19:22:30.774Z,67.50
2023-05-15T19:25:00.168Z,68.10
2023-05-15T19:27:29.227Z,68.10
2023-05-15T19:30:02.493Z,68.30
2023-05-15T19:32:35.749Z,68.60
2023-05-15T19:35:05.289Z,68.70
2023-05-15T19:37:34.352Z,68.80
2023-05-15T19:40:04.352Z,69.10
2023-05-15T19:42:33.472Z,69.10
2023-05-15T19:45:02.579Z,69.20
2023-05-15T19:47:33.134Z,69.20
2023-05-15T19:50:02.277Z,69.40
2023-05-15T19:52:31.531Z,69.70
2023-05-15T19:55:00.577Z,69.70
2023-05-15T19:57:29.636Z,70.00
2023-05-15T19:59:58.896Z,70.30
2023-05-15T20:02:28.047Z,70.60
2023-05-15T20:04:58.498Z,70.90
2023-05-15T20:07:27.716Z,71.10
2023-05-15T20:09:56.843Z,71.40
2023-05-15T20:12:25.993Z,71.50
2023-05-15T20:14:55.114Z,71.90
2023-05-15T20:17:24.897Z,72.20
2023-05-15T20:19:54.088Z,72.50
2023-05-15T20:22:24.511Z,72.80
2023-05-15T20:24:53.608Z,73.10
2023-05-15T20:27:22.847Z,73.30
2023-05-15T20:29:51.830Z,73.60
2023-05-15T20:32:20.952Z,73.80
2023-05-15T20:34:50.814Z,74.10
2023-05-15T20:37:19.818Z,74.40
2023-05-15T20:39:50.252Z,74.60
2023-05-15T20:42:19.296Z,74.90
2023-05-15T20:44:48.446Z,75.20
2023-05-15T20:47:17.515Z,75.10
2023-05-15T20:49:46.720Z,75.20
2023-05-15T20:52:16.073Z,75.20
2023-05-15T20:54:45.202Z,75.20
2023-05-15T20:57:15.782Z,75.30
2023-05-15T20:59:44.797Z,75.20
2023-05-15T21:02:13.934Z,75.30
2023-05-15T21:04:43.057Z,75.30
2023-05-15T21:07:12.369Z,75.50
2023-05-15T21:09:41.488Z,75.50
2023-05-15T21:12:10.913Z,75.30
2023-05-15T21:14:41.458Z,75.20
2023-05-15T21:17:10.581Z,75.10
2023-05-15T21:19:39.794Z,74.90
2023-05-15T21:22:08.857Z,74.70
2023-05-15T21:24:37.989Z,74.50
2023-05-15T21:27:07.429Z,74.10
2023-05-15T21:29:36.486Z,73.80
2023-05-15T21:32:07.649Z,73.30
2023-05-15T21:34:36.691Z,73.10
2023-05-15T21:37:06.078Z,72.50
2023-05-15T21:39:35.088Z,72.40
2023-05-15T21:42:04.851Z,72.30
2023-05-15T21:44:33.990Z,72.20
2023-05-15T21:47:03.023Z,71.40
2023-05-15T21:49:33.805Z,71.00
2023-05-15T21:52:02.866Z,70.10
2023-05-15T21:54:31.929Z,69.50
2023-05-15T21:57:01.042Z,69.10
2023-05-15T21:59:30.102Z,68.60
2023-05-15T22:01:59.122Z,68.10
2023-05-15T22:04:28.842Z,67.80
2023-05-15T22:06:59.352Z,67.70
2023-05-15T22:09:28.379Z,67.40
2023-05-15T22:11:57.423Z,67.20
2023-05-15T22:14:26.582Z,66.90
2023-05-15T22:16:55.965Z,66.60
2023-05-15T22:19:33.075Z,66.40
2023-05-15T22:22:04.503Z,66.20
2023-05-15T22:24:33.535Z,66.20
2023-05-15T22:27:02.645Z,66.30
2023-05-15T22:29:31.787Z,66.60
2023-05-15T22:32:00.995Z,66.80
2023-05-15T22:34:30.263Z,67.00
2023-05-15T22:36:59.249Z,67.00
2023-05-15T22:39:29.699Z,67.00
2023-05-15T22:41:58.713Z,67.10
2023-05-15T22:44:28.531Z,67.20
2023-05-15T22:46:57.612Z,67.30
2023-05-15T22:49:26.724Z,67.30
2023-05-15T22:51:56.962Z,67.40
2023-05-15T22:54:25.996Z,67.50
2023-05-15T22:56:56.487Z,67.50
2023-05-15T22:59:26.058Z,67.60
2023-05-15T23:01:55.203Z,67.70
2023-05-15T23:04:24.345Z,67.60
2023-05-15T23:06:53.462Z,67.70
2023-05-15T23:09:22.451Z,67.70
2023-05-15T23:11:51.695Z,67.60
2023-05-15T23:14:22.145Z,67.60
2023-05-15T23:16:52.163Z,67.50
2023-05-15T23:19:21.324Z,67.50
2023-05-15T23:21:50.454Z,67.50
2023-05-15T23:24:19.548Z,67.50
2023-05-15T23:26:48.531Z,67.50
2023-05-15T23:29:17.750Z,67.40
2023-05-15T23:31:48.129Z,67.50
2023-05-15T23:34:17.300Z,67.60
2023-05-15T23:36:46.369Z,67.60
2023-05-15T23:39:16.003Z,67.70
2023-05-15T23:41:45.109Z,67.70
2023-05-15T23:44:14.176Z,67.80
2023-05-15T23:46:43.266Z,67.80
2023-05-15T23:49:13.774Z,68.00
2023-05-15T23:51:43.749Z,68.10
2023-05-15T23:54:12.798Z,68.20
2023-05-15T23:56:41.844Z,68.40
2023-05-15T23:59:12.417Z,68.60
